createdAt,value
2019-06-20T00:00:57.185Z,15.00
2019-06-20T00:01:57.132Z,14.80
2019-06-20T00:02:57.172Z,15.70
2019-06-20T00:03:57.352Z,15.50
2019-06-20T00:06:57.329Z,15.40
2019-06-20T00:07:57.667Z,15.00
2019-06-20T00:08:57.639Z,14.80
2019-06-20T00:09:57.363Z,14.70
2019-06-20T00:10:57.257Z,15.00
2019-06-20T00:11:57.284Z,15.30
2019-06-20T00:13:00.681Z,16.00
2019-06-20T00:13:57.320Z,15.60
2019-06-20T00:14:57.370Z,15.70
2019-06-20T00:15:57.320Z,15.30
2019-06-20T00:16:59.507Z,16.50
2019-06-20T00:17:57.358Z,15.90
2019-06-20T00:18:57.397Z,15.80
2019-06-20T00:19:57.412Z,16.10
2019-06-20T00:20:57.397Z,16.00
2019-06-20T00:21:57.549Z,15.40
2019-06-20T00:22:57.561Z,15.50
2019-06-20T00:23:57.583Z,15.90
2019-06-20T00:24:57.749Z,15.50
2019-06-20T00:25:57.552Z,16.40
2019-06-20T00:26:57.509Z,17.00
2019-06-20T00:27:57.522Z,15.90
2019-06-20T00:28:57.528Z,16.00
2019-06-20T00:29:57.818Z,16.10
2019-06-20T00:30:57.554Z,15.90
2019-06-20T00:31:57.657Z,15.30
2019-06-20T00:32:57.588Z,15.60
2019-06-20T00:33:57.598Z,16.10
2019-06-20T00:34:57.657Z,16.20
2019-06-20T00:36:58.211Z,15.90
2019-06-20T00:38:57.959Z,15.60
2019-06-20T00:39:58.184Z,16.20
2019-06-20T00:40:57.785Z,16.90
2019-06-20T00:41:57.725Z,16.40
2019-06-20T00:42:57.771Z,17.50
2019-06-20T00:43:57.876Z,17.10
2019-06-20T00:44:57.775Z,16.20
2019-06-20T00:45:57.900Z,16.40
2019-06-20T00:46:57.844Z,16.40
2019-06-20T00:47:57.877Z,16.20
2019-06-20T00:48:57.842Z,15.70
2019-06-20T00:49:57.993Z,16.60
2019-06-20T00:50:57.870Z,16.00
2019-06-20T00:51:58.015Z,16.90
2019-06-20T00:52:57.947Z,16.40
2019-06-20T00:53:57.919Z,16.90
2019-06-20T00:54:57.932Z,16.30
2019-06-20T00:55:57.945Z,16.60
2019-06-20T00:56:58.023Z,16.40
2019-06-20T00:57:57.978Z,16.50
2019-06-20T00:58:57.988Z,16.70
2019-06-20T00:59:58.007Z,16.90
2019-06-20T01:00:58.021Z,16.80
2019-06-20T01:01:58.043Z,16.80
2019-06-20T01:02:58.059Z,16.80
2019-06-20T01:03:58.078Z,17.00
2019-06-20T01:04:58.088Z,16.50
2019-06-20T01:05:58.294Z,16.80
2019-06-20T01:06:58.155Z,16.90
2019-06-20T01:07:58.191Z,16.70
2019-06-20T01:08:58.378Z,18.00
2019-06-20T01:09:58.698Z,16.60
2019-06-20T01:11:58.350Z,16.90
2019-06-20T01:12:58.822Z,16.70
2019-06-20T01:13:58.328Z,17.30
2019-06-20T01:14:58.261Z,17.60
2019-06-20T01:15:58.293Z,17.50
2019-06-20T01:16:58.273Z,17.70
2019-06-20T01:17:58.286Z,17.50
2019-06-20T01:18:58.303Z,16.90
2019-06-20T01:20:58.347Z,17.00
2019-06-20T01:21:58.357Z,17.00
2019-06-20T01:22:58.365Z,17.00
2019-06-20T01:23:58.395Z,17.30
2019-06-20T01:24:58.402Z,16.80
2019-06-20T01:25:58.422Z,16.60
2019-06-20T01:26:58.431Z,16.50
2019-06-20T01:27:58.453Z,16.30
2019-06-20T01:28:58.496Z,15.40
2019-06-20T01:29:58.478Z,15.40
2019-06-20T01:30:58.501Z,16.00
2019-06-20T01:31:58.508Z,16.10
2019-06-20T01:32:58.523Z,16.50
2019-06-20T01:33:58.550Z,15.70
2019-06-20T01:34:58.615Z,16.20
2019-06-20T01:35:58.595Z,15.30
2019-06-20T01:36:58.611Z,15.50
2019-06-20T01:37:58.599Z,15.10
2019-06-20T01:38:58.612Z,15.30
2019-06-20T01:39:58.658Z,15.30
2019-06-20T01:40:58.764Z,15.30
2019-06-20T01:41:59.318Z,15.30
2019-06-20T01:44:58.890Z,14.30
2019-06-20T01:45:58.741Z,15.30
2019-06-20T01:46:58.744Z,15.60
2019-06-20T01:47:58.780Z,15.60
2019-06-20T01:48:58.797Z,15.70
2019-06-20T01:49:58.785Z,14.30
2019-06-20T01:50:58.809Z,15.50
2019-06-20T01:51:58.818Z,16.40
2019-06-20T01:52:58.854Z,15.80
2019-06-20T01:53:58.855Z,15.80
2019-06-20T01:54:58.869Z,15.20
2019-06-20T01:55:58.882Z,15.00
2019-06-20T01:56:58.895Z,16.00
2019-06-20T01:57:58.910Z,15.60
2019-06-20T01:58:58.970Z,15.90
2019-06-20T02:00:59.099Z,15.30
2019-06-20T02:01:58.995Z,15.30
2019-06-20T02:02:58.991Z,15.40
2019-06-20T02:03:59.044Z,16.20
2019-06-20T02:05:59.039Z,15.90
2019-06-20T02:06:59.052Z,15.60
2019-06-20T02:07:59.070Z,15.70
2019-06-20T02:08:59.135Z,15.80
2019-06-20T02:09:59.112Z,16.00
2019-06-20T02:10:59.249Z,16.10
2019-06-20T02:11:59.138Z,15.70
2019-06-20T02:12:59.145Z,16.00
2019-06-20T02:14:07.291Z,15.30
2019-06-20T02:14:59.252Z,16.70
2019-06-20T02:15:59.192Z,15.80
2019-06-20T02:16:59.249Z,15.80
2019-06-20T02:17:59.250Z,16.00
2019-06-20T02:18:59.495Z,15.60
2019-06-20T02:19:59.285Z,15.70
2019-06-20T02:20:59.384Z,16.60
2019-06-20T02:21:59.316Z,16.00
2019-06-20T02:22:59.310Z,16.10
2019-06-20T02:23:59.321Z,16.10
2019-06-20T02:24:59.338Z,16.00
2019-06-20T02:25:59.370Z,16.20
2019-06-20T02:26:59.365Z,17.70
2019-06-20T02:27:59.381Z,17.10
2019-06-20T02:28:59.653Z,16.80
2019-06-20T02:29:59.437Z,16.80
2019-06-20T02:30:59.439Z,17.10
2019-06-20T02:31:59.505Z,17.30
2019-06-20T02:32:59.676Z,17.40
2019-06-20T02:33:59.473Z,17.00
2019-06-20T02:35:59.503Z,16.80
2019-06-20T02:36:59.523Z,17.50
2019-06-20T02:37:59.570Z,17.20
2019-06-20T02:38:59.582Z,17.50
2019-06-20T02:39:59.569Z,17.40
2019-06-20T02:40:59.578Z,17.30
2019-06-20T02:41:59.666Z,17.10
2019-06-20T02:42:59.612Z,17.20
2019-06-20T02:43:59.635Z,17.10
2019-06-20T02:44:59.647Z,17.30
2019-06-20T02:45:59.703Z,17.60
2019-06-20T02:47:00.100Z,17.00
2019-06-20T02:48:00.370Z,17.30
2019-06-20T02:49:00.831Z,16.90
2019-06-20T02:50:00.425Z,17.00
2019-06-20T02:50:59.774Z,17.40
2019-06-20T02:51:59.802Z,16.80
2019-06-20T02:53:00.427Z,18.20
2019-06-20T02:54:00.132Z,17.00
2019-06-20T02:54:59.797Z,17.20
2019-06-20T02:55:59.822Z,17.00
2019-06-20T02:57:00.286Z,17.90
2019-06-20T02:57:59.851Z,18.00
2019-06-20T02:58:59.860Z,16.70
2019-06-20T02:59:59.872Z,17.30
2019-06-20T03:00:59.889Z,18.10
2019-06-20T03:01:59.950Z,18.30
2019-06-20T03:02:59.925Z,18.20
2019-06-20T03:03:59.982Z,18.10
2019-06-20T03:04:59.948Z,17.90
2019-06-20T03:05:59.966Z,17.60
2019-06-20T03:06:59.982Z,18.10
2019-06-20T03:08:00.499Z,18.20
2019-06-20T03:09:00.264Z,17.40
2019-06-20T03:10:00.043Z,18.20
2019-06-20T03:11:00.052Z,18.60
2019-06-20T03:12:00.106Z,18.40
2019-06-20T03:13:00.144Z,19.60
2019-06-20T03:14:00.090Z,18.60
2019-06-20T03:15:00.155Z,19.10
2019-06-20T03:16:00.122Z,19.80
2019-06-20T03:17:00.273Z,19.90
2019-06-20T03:19:01.114Z,20.60
2019-06-20T03:20:00.418Z,19.90
2019-06-20T03:21:00.861Z,19.90
2019-06-20T03:22:00.268Z,20.30
2019-06-20T03:24:00.292Z,20.30
2019-06-20T03:25:00.565Z,21.10
2019-06-20T03:26:00.321Z,19.90
2019-06-20T03:27:00.297Z,21.10
2019-06-20T03:28:00.420Z,20.80
2019-06-20T03:29:00.326Z,19.90
2019-06-20T03:31:00.362Z,19.50
2019-06-20T03:32:00.374Z,20.00
2019-06-20T03:33:00.393Z,20.90
2019-06-20T03:34:00.400Z,21.00
2019-06-20T03:35:00.445Z,20.20
2019-06-20T03:36:00.458Z,21.40
2019-06-20T03:37:00.449Z,20.50
2019-06-20T03:38:00.465Z,21.20
2019-06-20T03:39:00.539Z,20.70
2019-06-20T03:40:00.542Z,20.10
2019-06-20T03:41:00.648Z,20.70
2019-06-20T03:42:00.533Z,21.00
2019-06-20T03:43:00.561Z,21.60
2019-06-20T03:44:00.553Z,21.60
2019-06-20T03:45:02.488Z,21.30
2019-06-20T03:46:00.621Z,22.10
2019-06-20T03:47:00.754Z,21.50
2019-06-20T03:49:01.507Z,21.70
2019-06-20T03:50:00.812Z,22.10
2019-06-20T03:51:00.662Z,22.30
2019-06-20T03:52:00.737Z,23.70
2019-06-20T03:54:00.739Z,23.70
2019-06-20T03:55:00.901Z,24.00
2019-06-20T03:56:01.540Z,23.90
2019-06-20T03:58:00.882Z,24.20
2019-06-20T03:59:00.789Z,25.30
2019-06-20T04:00:01.039Z,24.30
2019-06-20T04:01:00.856Z,24.70
2019-06-20T04:02:01.034Z,23.00
2019-06-20T04:03:01.626Z,25.40
2019-06-20T04:04:00.869Z,26.30
2019-06-20T04:05:01.252Z,24.80
2019-06-20T04:06:00.922Z,26.60
2019-06-20T04:07:00.919Z,26.30
2019-06-20T04:08:00.928Z,26.10
2019-06-20T04:09:00.952Z,26.20
2019-06-20T04:10:01.176Z,27.50
2019-06-20T04:11:00.979Z,26.50
2019-06-20T04:12:01.043Z,27.90
2019-06-20T04:13:01.003Z,26.50
2019-06-20T04:14:02.009Z,26.70
2019-06-20T04:15:01.037Z,27.00
2019-06-20T04:16:01.070Z,28.40
2019-06-20T04:17:01.437Z,26.40
2019-06-20T04:18:01.169Z,27.70
2019-06-20T04:19:02.033Z,27.00
2019-06-20T04:21:01.126Z,27.90
2019-06-20T04:24:01.887Z,27.30
2019-06-20T04:25:01.395Z,28.20
2019-06-20T04:26:01.926Z,28.60
2019-06-20T04:27:01.229Z,26.60
2019-06-20T04:28:01.443Z,29.10
2019-06-20T04:29:01.368Z,27.30
2019-06-20T04:30:01.414Z,27.60
2019-06-20T04:31:01.357Z,28.60
2019-06-20T04:32:01.376Z,27.30
2019-06-20T04:33:01.507Z,27.10
2019-06-20T04:34:01.359Z,28.50
2019-06-20T04:35:01.350Z,28.00
2019-06-20T04:36:01.578Z,27.90
2019-06-20T04:37:01.403Z,28.70
2019-06-20T04:38:01.413Z,29.10
2019-06-20T04:39:01.591Z,28.10
2019-06-20T04:40:01.873Z,28.40
2019-06-20T04:41:01.437Z,27.40
2019-06-20T04:43:01.526Z,27.70
2019-06-20T04:44:01.574Z,28.30
2019-06-20T04:45:01.500Z,27.50
2019-06-20T04:46:01.508Z,28.20
2019-06-20T04:47:01.574Z,28.20
2019-06-20T04:48:01.546Z,29.00
2019-06-20T04:49:01.558Z,29.40
2019-06-20T04:50:01.607Z,28.80
2019-06-20T04:51:01.594Z,29.20
2019-06-20T04:52:01.658Z,28.90
2019-06-20T04:53:01.670Z,29.00
2019-06-20T04:54:01.645Z,28.90
2019-06-20T04:55:02.211Z,29.00
2019-06-20T04:56:05.408Z,29.70
2019-06-20T04:58:01.752Z,29.80
2019-06-20T04:59:01.844Z,29.60
2019-06-20T05:00:01.775Z,29.30
2019-06-20T05:03:02.222Z,29.40
2019-06-20T05:04:01.794Z,29.50
2019-06-20T05:05:01.810Z,30.20
2019-06-20T05:07:01.864Z,29.70
2019-06-20T05:08:01.899Z,29.80
2019-06-20T05:09:02.971Z,29.50
2019-06-20T05:10:02.090Z,31.10
2019-06-20T05:11:02.028Z,30.10
2019-06-20T05:12:02.081Z,30.60
2019-06-20T05:13:01.939Z,30.80
2019-06-20T05:14:03.033Z,30.50
2019-06-20T05:15:01.966Z,30.60
2019-06-20T05:17:02.007Z,30.60
2019-06-20T05:18:02.015Z,31.20
2019-06-20T05:19:03.923Z,30.30
2019-06-20T05:20:02.387Z,31.40
2019-06-20T05:21:02.134Z,30.10
2019-06-20T05:23:02.383Z,30.80
2019-06-20T05:24:03.582Z,31.00
2019-06-20T05:25:02.186Z,30.00
2019-06-20T05:26:03.029Z,29.50
2019-06-20T05:27:03.305Z,31.00
2019-06-20T05:29:05.332Z,30.70
2019-06-20T05:30:02.965Z,31.30
2019-06-20T05:33:02.253Z,30.90
2019-06-20T05:36:02.854Z,31.40
2019-06-20T05:37:02.354Z,31.20
2019-06-20T05:38:02.415Z,31.70
2019-06-20T05:39:02.338Z,32.20
2019-06-20T05:40:06.160Z,31.80
2019-06-20T05:42:04.049Z,31.20
2019-06-20T05:44:02.831Z,33.70
2019-06-20T05:45:06.994Z,34.40
2019-06-20T05:46:09.510Z,32.60
2019-06-20T05:47:12.420Z,32.90
2019-06-20T05:48:02.476Z,32.60
2019-06-20T05:49:02.875Z,33.70
2019-06-20T05:50:03.842Z,33.20
2019-06-20T05:51:04.699Z,33.80
2019-06-20T05:52:04.556Z,33.10
2019-06-20T05:53:02.726Z,34.20
2019-06-20T05:56:03.555Z,32.80
2019-06-20T05:58:03.781Z,34.10
2019-06-20T05:59:03.570Z,34.40
2019-06-20T06:01:03.179Z,34.90
2019-06-20T06:02:04.678Z,33.90
2019-06-20T06:04:03.179Z,34.70
2019-06-20T06:05:03.805Z,36.10
2019-06-20T06:06:03.281Z,36.10
2019-06-20T06:07:05.176Z,35.50
2019-06-20T06:08:04.242Z,35.20
2019-06-20T06:09:03.797Z,35.80
2019-06-20T06:10:05.390Z,36.20
2019-06-20T06:11:03.293Z,35.30
2019-06-20T06:12:03.096Z,36.80
2019-06-20T06:14:05.529Z,37.30
2019-06-20T06:15:06.417Z,38.10
2019-06-20T06:16:03.099Z,38.40
2019-06-20T06:17:04.783Z,36.10
2019-06-20T06:18:03.965Z,39.30
2019-06-20T06:19:03.104Z,38.50
2019-06-20T06:20:03.563Z,39.30
2019-06-20T06:21:03.181Z,38.60
2019-06-20T06:22:03.201Z,38.50
2019-06-20T06:23:04.120Z,39.60
2019-06-20T06:24:03.604Z,37.00
2019-06-20T06:25:05.005Z,36.30
2019-06-20T06:26:03.879Z,36.90
2019-06-20T06:27:03.799Z,37.20
2019-06-20T06:28:04.193Z,37.40
2019-06-20T06:29:04.288Z,40.10
2019-06-20T06:30:06.306Z,39.60
2019-06-20T06:32:03.952Z,40.60
2019-06-20T06:34:04.215Z,40.90
2019-06-20T06:35:05.727Z,39.90
2019-06-20T06:37:03.267Z,40.60
2019-06-20T06:38:03.256Z,40.60
2019-06-20T06:39:03.760Z,40.00
2019-06-20T06:40:06.247Z,39.80
2019-06-20T06:41:04.129Z,40.40
2019-06-20T06:42:04.093Z,39.80
2019-06-20T06:43:05.378Z,40.20
2019-06-20T06:44:04.483Z,40.80
2019-06-20T06:45:06.059Z,41.10
2019-06-20T06:46:04.055Z,42.10
2019-06-20T06:47:03.830Z,40.90
2019-06-20T06:48:04.329Z,40.40
2019-06-20T06:49:03.795Z,40.60
2019-06-20T06:50:05.550Z,43.20
2019-06-20T06:51:04.935Z,41.30
2019-06-20T06:52:04.664Z,40.80
2019-06-20T06:53:04.830Z,40.90
2019-06-20T06:54:04.287Z,39.00
2019-06-20T06:55:05.168Z,39.30
2019-06-20T06:56:05.294Z,41.30
2019-06-20T06:57:05.260Z,40.30
2019-06-20T06:58:04.494Z,38.60
2019-06-20T06:59:03.616Z,40.40
2019-06-20T07:00:04.089Z,40.80
2019-06-20T07:01:10.208Z,40.20
2019-06-20T07:02:04.337Z,39.70
2019-06-20T07:03:04.848Z,39.60
2019-06-20T07:04:05.561Z,40.20
2019-06-20T07:06:06.911Z,40.40
2019-06-20T07:07:05.125Z,40.90
2019-06-20T07:08:08.213Z,39.30
2019-06-20T07:09:08.235Z,40.50
2019-06-20T07:11:08.117Z,41.40
2019-06-20T07:12:07.243Z,41.20
2019-06-20T07:16:03.844Z,38.10
2019-06-20T07:17:03.864Z,39.30
2019-06-20T07:18:03.879Z,39.50
2019-06-20T07:20:03.896Z,38.10
2019-06-20T07:21:03.978Z,36.70
2019-06-20T07:22:07.401Z,36.40
2019-06-20T07:23:05.218Z,33.00
2019-06-20T07:24:03.967Z,34.20
2019-06-20T07:25:03.967Z,36.70
2019-06-20T07:26:04.825Z,34.10
2019-06-20T07:27:04.645Z,32.10
2019-06-20T07:28:04.808Z,34.00
2019-06-20T07:29:04.054Z,32.80
2019-06-20T07:30:04.042Z,33.00
2019-06-20T07:31:04.275Z,32.90
2019-06-20T07:32:04.242Z,31.10
2019-06-20T07:33:04.298Z,31.00
2019-06-20T07:34:08.223Z,30.50
2019-06-20T07:35:05.973Z,30.50
2019-06-20T07:36:04.541Z,32.00
2019-06-20T07:37:04.576Z,31.30
2019-06-20T07:38:04.236Z,31.60
2019-06-20T07:42:04.372Z,31.30
2019-06-20T07:43:04.257Z,31.30
2019-06-20T07:44:04.264Z,31.40
2019-06-20T07:45:04.290Z,31.80
2019-06-20T07:46:05.995Z,32.80
2019-06-20T07:47:17.189Z,32.00
2019-06-20T07:50:18.277Z,31.00
2019-06-20T07:51:09.053Z,30.00
2019-06-20T07:52:08.374Z,29.90
2019-06-20T07:53:10.077Z,26.80
2019-06-20T07:54:09.430Z,27.00
2019-06-20T07:55:04.480Z,25.80
2019-06-20T07:56:11.842Z,26.70
2019-06-20T07:57:09.284Z,26.70
2019-06-20T07:59:04.503Z,25.70
2019-06-20T08:00:04.528Z,25.00
2019-06-20T08:01:04.557Z,23.10
2019-06-20T08:02:04.572Z,24.10
2019-06-20T08:03:04.578Z,23.40
2019-06-20T08:04:04.596Z,24.30
2019-06-20T08:05:04.586Z,23.30
2019-06-20T08:06:04.737Z,22.80
2019-06-20T08:07:04.731Z,23.50
2019-06-20T08:09:05.122Z,24.00
2019-06-20T08:10:05.180Z,24.20
2019-06-20T08:11:05.148Z,23.60
2019-06-20T08:12:04.719Z,24.50
2019-06-20T08:13:04.715Z,24.20
2019-06-20T08:14:05.679Z,23.50
2019-06-20T08:15:14.468Z,25.50
2019-06-20T08:16:04.792Z,24.60
2019-06-20T08:17:04.860Z,24.10
2019-06-20T08:18:04.806Z,26.20
2019-06-20T08:19:04.831Z,24.90
2019-06-20T08:20:04.853Z,26.40
2019-06-20T08:21:04.914Z,25.80
2019-06-20T08:22:04.856Z,26.70
2019-06-20T08:23:04.900Z,26.60
2019-06-20T08:24:04.890Z,27.70
2019-06-20T08:25:05.382Z,27.90
2019-06-20T08:26:04.918Z,28.80
2019-06-20T08:27:05.031Z,27.60
2019-06-20T08:28:04.960Z,29.40
2019-06-20T08:29:18.583Z,29.40
2019-06-20T08:30:05.225Z,29.40
2019-06-20T08:31:04.996Z,28.60
2019-06-20T08:32:05.011Z,29.20
2019-06-20T08:33:11.737Z,29.70
2019-06-20T08:34:05.044Z,29.50
2019-06-20T08:35:06.433Z,30.40
2019-06-20T08:36:06.552Z,31.60
2019-06-20T08:37:06.386Z,31.90
2019-06-20T08:38:05.686Z,31.60
2019-06-20T08:39:06.489Z,31.50
2019-06-20T08:40:06.490Z,31.30
2019-06-20T08:41:06.398Z,32.30
2019-06-20T08:42:06.370Z,32.30
2019-06-20T08:43:06.268Z,32.40
2019-06-20T08:44:06.140Z,32.50
2019-06-20T08:45:06.109Z,33.90
2019-06-20T08:47:05.947Z,33.90
2019-06-20T08:48:05.267Z,32.90
2019-06-20T08:49:05.779Z,32.40
2019-06-20T08:50:06.085Z,31.20
2019-06-20T08:51:06.475Z,32.60
2019-06-20T08:52:05.603Z,32.00
2019-06-20T08:53:05.884Z,31.70
2019-06-20T08:54:05.507Z,30.30
2019-06-20T08:55:05.769Z,31.10
2019-06-20T08:56:05.570Z,30.30
2019-06-20T08:57:05.864Z,28.90
2019-06-20T08:58:05.723Z,29.80
2019-06-20T08:59:05.455Z,29.20
2019-06-20T09:03:05.495Z,26.60
2019-06-20T09:04:05.511Z,27.80
2019-06-20T09:05:05.534Z,26.00
2019-06-20T09:06:05.666Z,25.50
2019-06-20T09:07:05.578Z,26.40
2019-06-20T09:08:05.572Z,25.00
2019-06-20T09:09:05.606Z,25.30
2019-06-20T09:10:05.756Z,24.90
2019-06-20T09:11:05.634Z,24.40
2019-06-20T09:12:06.454Z,26.70
2019-06-20T09:13:05.653Z,25.30
2019-06-20T09:14:06.155Z,24.20
2019-06-20T09:15:06.689Z,24.00
2019-06-20T09:16:05.833Z,25.00
2019-06-20T09:17:06.674Z,24.10
2019-06-20T09:21:05.897Z,24.30
2019-06-20T09:22:06.711Z,24.10
2019-06-20T09:23:06.643Z,25.90
2019-06-20T09:24:06.873Z,25.60
2019-06-20T09:25:06.011Z,26.00
2019-06-20T09:26:05.870Z,25.90
2019-06-20T09:27:05.881Z,26.60
2019-06-20T09:28:05.893Z,26.90
2019-06-20T09:29:05.917Z,26.10
2019-06-20T09:30:05.940Z,27.00
2019-06-20T09:31:05.984Z,25.40
2019-06-20T09:32:05.957Z,25.40
2019-06-20T09:33:06.845Z,24.30
2019-06-20T09:34:06.069Z,21.50
2019-06-20T09:35:06.109Z,21.10
2019-06-20T09:36:06.106Z,22.80
2019-06-20T09:37:06.038Z,21.70
2019-06-20T09:38:06.318Z,21.80
2019-06-20T09:39:06.626Z,22.30
2019-06-20T09:40:06.091Z,22.40
2019-06-20T09:41:06.127Z,21.90
2019-06-20T09:42:06.146Z,21.30
2019-06-20T09:43:06.182Z,21.20
2019-06-20T09:44:06.183Z,21.70
2019-06-20T09:45:06.288Z,22.10
2019-06-20T09:46:06.231Z,22.70
2019-06-20T09:47:06.327Z,21.60
2019-06-20T09:50:07.082Z,20.70
2019-06-20T09:51:06.269Z,20.80
2019-06-20T09:52:06.641Z,20.70
2019-06-20T09:53:06.798Z,21.20
2019-06-20T09:54:06.445Z,20.00
2019-06-20T09:55:06.592Z,21.50
2019-06-20T09:56:06.767Z,20.50
2019-06-20T09:57:06.379Z,20.40
2019-06-20T09:58:06.416Z,20.90
2019-06-20T09:59:06.707Z,20.80
2019-06-20T10:00:10.414Z,20.90
2019-06-20T10:01:06.866Z,20.40
2019-06-20T10:02:06.470Z,18.80
2019-06-20T10:03:06.476Z,17.80
2019-06-20T10:04:06.484Z,17.60
2019-06-20T10:05:06.510Z,14.30
2019-06-20T10:06:13.922Z,13.80
2019-06-20T10:07:06.539Z,14.20
2019-06-20T10:08:06.548Z,14.00
2019-06-20T10:09:06.573Z,14.00
2019-06-20T10:10:06.583Z,12.80
2019-06-20T10:11:06.595Z,13.60
2019-06-20T10:12:06.613Z,13.80
2019-06-20T10:13:06.635Z,13.70
2019-06-20T10:14:06.689Z,13.40
2019-06-20T10:15:06.677Z,13.10
2019-06-20T10:16:06.683Z,13.00
2019-06-20T10:17:06.702Z,12.60
2019-06-20T10:18:06.706Z,13.20
2019-06-20T10:19:06.733Z,13.80
2019-06-20T10:20:06.748Z,13.10
2019-06-20T10:21:06.772Z,12.30
2019-06-20T10:22:06.786Z,12.70
2019-06-20T10:23:06.798Z,11.90
2019-06-20T10:24:06.865Z,11.80
2019-06-20T10:25:06.840Z,11.90
2019-06-20T10:26:07.194Z,11.30
2019-06-20T10:27:06.877Z,10.70
2019-06-20T10:28:06.912Z,11.00
2019-06-20T10:29:06.891Z,11.10
2019-06-20T10:30:14.366Z,10.60
2019-06-20T10:31:06.946Z,10.30
2019-06-20T10:32:06.943Z,10.20
2019-06-20T10:33:06.957Z,10.20
2019-06-20T10:34:06.986Z,10.00
2019-06-20T10:35:06.999Z,9.60
2019-06-20T10:36:07.045Z,10.20
2019-06-20T10:37:07.725Z,10.00
2019-06-20T10:38:07.078Z,9.80
2019-06-20T10:39:07.062Z,9.90
2019-06-20T10:40:07.124Z,8.80
2019-06-20T10:41:07.090Z,8.30
2019-06-20T10:42:07.120Z,9.30
2019-06-20T10:43:07.127Z,8.40
2019-06-20T10:44:07.144Z,9.10
2019-06-20T10:45:07.221Z,9.00
2019-06-20T10:46:07.168Z,9.10
2019-06-20T10:47:07.183Z,9.40
2019-06-20T10:48:07.210Z,10.00
2019-06-20T10:49:07.308Z,10.00
2019-06-20T10:50:07.249Z,10.50
2019-06-20T10:51:07.262Z,9.20
2019-06-20T10:52:07.467Z,9.40
2019-06-20T10:53:07.458Z,10.00
2019-06-20T10:54:07.296Z,9.90
2019-06-20T10:55:07.345Z,10.00
2019-06-20T10:56:07.336Z,9.60
2019-06-20T10:57:07.370Z,9.90
2019-06-20T10:58:07.424Z,10.70
2019-06-20T10:59:07.394Z,9.80
2019-06-20T11:00:08.231Z,9.10
2019-06-20T11:01:07.472Z,9.50
2019-06-20T11:02:07.530Z,9.10
2019-06-20T11:04:07.489Z,8.60
2019-06-20T11:05:07.515Z,8.20
2019-06-20T11:06:07.514Z,7.70
2019-06-20T11:07:07.617Z,8.10
2019-06-20T11:08:07.535Z,9.00
2019-06-20T11:09:07.589Z,8.70
2019-06-20T11:10:07.615Z,8.40
2019-06-20T11:11:07.597Z,8.60
2019-06-20T11:12:07.637Z,8.90
2019-06-20T11:13:07.617Z,8.90
2019-06-20T11:14:07.635Z,8.10
2019-06-20T11:15:07.759Z,9.00
2019-06-20T11:16:07.782Z,8.60
2019-06-20T11:17:07.915Z,9.20
2019-06-20T11:18:08.303Z,8.80
2019-06-20T11:19:07.718Z,9.20
2019-06-20T11:20:07.741Z,8.60
2019-06-20T11:21:07.801Z,9.30
2019-06-20T11:22:07.852Z,8.60
2019-06-20T11:23:07.789Z,8.70
2019-06-20T11:24:07.821Z,8.30
2019-06-20T11:25:07.886Z,8.50
2019-06-20T11:26:07.845Z,8.20
2019-06-20T11:27:07.947Z,8.10
2019-06-20T11:29:08.992Z,7.10
2019-06-20T11:30:10.947Z,6.70
2019-06-20T11:31:07.957Z,7.10
2019-06-20T11:32:07.953Z,6.00
2019-06-20T11:33:07.984Z,5.80
2019-06-20T11:34:08.056Z,6.00
2019-06-20T11:35:08.010Z,5.30
2019-06-20T11:36:08.054Z,5.50
2019-06-20T11:37:08.276Z,5.20
2019-06-20T11:38:08.108Z,5.90
2019-06-20T11:39:08.071Z,6.10
2019-06-20T11:40:08.158Z,5.80
2019-06-20T11:41:08.130Z,5.90
2019-06-20T11:42:08.251Z,5.90
2019-06-20T11:43:08.216Z,5.50
2019-06-20T11:44:08.321Z,5.20
2019-06-20T11:45:08.216Z,4.60
2019-06-20T11:46:08.196Z,5.00
2019-06-20T11:47:08.218Z,4.60
2019-06-20T11:48:08.554Z,4.60
2019-06-20T11:49:08.247Z,4.60
2019-06-20T11:51:08.341Z,5.00
2019-06-20T11:53:08.340Z,4.90
2019-06-20T11:54:08.470Z,4.70
2019-06-20T11:55:08.612Z,5.40
2019-06-20T11:56:08.441Z,5.00
2019-06-20T11:57:08.392Z,5.20
2019-06-20T11:58:09.117Z,5.10
2019-06-20T11:59:08.439Z,5.20
2019-06-20T12:00:08.846Z,5.40
2019-06-20T12:01:08.460Z,5.60
2019-06-20T12:02:08.746Z,5.70
2019-06-20T12:03:08.506Z,5.80
2019-06-20T12:04:09.481Z,5.70
2019-06-20T12:05:08.952Z,6.30
2019-06-20T12:06:08.557Z,5.70
2019-06-20T12:07:08.579Z,5.60
2019-06-20T12:08:08.620Z,6.10
2019-06-20T12:09:08.611Z,6.10
2019-06-20T12:10:09.620Z,5.90
2019-06-20T12:11:08.647Z,6.30
2019-06-20T12:12:10.095Z,6.20
2019-06-20T12:13:08.677Z,6.20
2019-06-20T12:14:08.803Z,5.60
2019-06-20T12:15:08.710Z,5.60
2019-06-20T12:16:08.716Z,5.90
2019-06-20T12:17:08.726Z,6.20
2019-06-20T12:18:08.752Z,5.80
2019-06-20T12:19:08.763Z,5.40
2019-06-20T12:20:09.830Z,5.80
2019-06-20T12:21:08.802Z,5.40
2019-06-20T12:22:08.815Z,5.80
2019-06-20T12:23:08.838Z,7.00
2019-06-20T12:24:08.908Z,5.90
2019-06-20T12:25:08.870Z,6.40
2019-06-20T12:26:08.880Z,6.10
2019-06-20T12:27:08.954Z,6.10
2019-06-20T12:28:09.101Z,6.30
2019-06-20T12:29:08.939Z,5.80
2019-06-20T12:30:08.974Z,6.00
2019-06-20T12:31:18.905Z,5.80
2019-06-20T12:32:10.050Z,7.00
2019-06-20T12:33:09.034Z,6.60
2019-06-20T12:34:09.026Z,6.20
2019-06-20T12:35:09.043Z,6.60
2019-06-20T12:36:09.064Z,6.30
2019-06-20T12:37:09.481Z,6.30
2019-06-20T12:38:09.707Z,6.60
2019-06-20T12:39:09.176Z,6.60
2019-06-20T12:40:09.167Z,6.60
2019-06-20T12:42:09.164Z,6.10
2019-06-20T12:43:09.296Z,6.30
2019-06-20T12:44:09.256Z,6.60
2019-06-20T12:45:09.666Z,6.80
2019-06-20T12:46:09.283Z,6.70
2019-06-20T12:47:09.255Z,6.60
2019-06-20T12:48:09.283Z,6.80
2019-06-20T12:49:09.286Z,5.90
2019-06-20T12:50:09.331Z,6.00
2019-06-20T12:51:09.325Z,7.30
2019-06-20T12:52:09.339Z,7.70
2019-06-20T12:53:09.367Z,7.60
2019-06-20T12:55:09.400Z,7.00
2019-06-20T12:56:09.485Z,6.50
2019-06-20T12:57:09.430Z,6.70
2019-06-20T12:58:09.596Z,6.80
2019-06-20T13:00:09.817Z,7.70
2019-06-20T13:01:09.515Z,7.70
2019-06-20T13:02:09.524Z,7.30
2019-06-20T13:03:09.668Z,7.80
2019-06-20T13:04:09.572Z,7.20
2019-06-20T13:05:09.579Z,8.00
2019-06-20T13:06:09.608Z,8.50
2019-06-20T13:07:09.699Z,8.50
2019-06-20T13:08:09.664Z,8.60
2019-06-20T13:09:09.640Z,7.80
2019-06-20T13:10:09.662Z,8.00
2019-06-20T13:11:09.771Z,8.00
2019-06-20T13:12:09.757Z,8.20
2019-06-20T13:13:09.972Z,8.10
2019-06-20T13:14:10.235Z,8.40
2019-06-20T13:15:09.792Z,9.00
2019-06-20T13:16:09.763Z,8.80
2019-06-20T13:17:09.916Z,8.00
2019-06-20T13:18:09.903Z,8.00
2019-06-20T13:19:09.876Z,7.90
2019-06-20T13:20:10.045Z,7.60
2019-06-20T13:21:09.916Z,8.00
2019-06-20T13:23:09.899Z,7.70
2019-06-20T13:24:09.915Z,7.60
2019-06-20T13:25:09.945Z,7.70
2019-06-20T13:26:09.945Z,7.70
2019-06-20T13:27:10.018Z,7.20
2019-06-20T13:28:09.987Z,7.40
2019-06-20T13:29:09.991Z,6.90
2019-06-20T13:30:10.039Z,7.00
2019-06-20T13:31:10.046Z,7.00
2019-06-20T13:32:10.345Z,7.20
2019-06-20T13:34:10.113Z,7.20
2019-06-20T13:35:10.123Z,7.60
2019-06-20T13:36:10.123Z,7.10
2019-06-20T13:37:10.177Z,7.50
2019-06-20T13:38:10.157Z,7.20
2019-06-20T13:39:10.165Z,8.00
2019-06-20T13:40:10.189Z,8.60
2019-06-20T13:41:10.204Z,7.90
2019-06-20T13:42:10.213Z,8.20
2019-06-20T13:43:10.408Z,7.80
2019-06-20T13:44:10.398Z,8.40
2019-06-20T13:45:13.225Z,8.80
2019-06-20T13:46:10.269Z,9.00
2019-06-20T13:47:10.294Z,8.70
2019-06-20T13:48:10.791Z,8.50
2019-06-20T13:49:10.351Z,8.70
2019-06-20T13:50:10.426Z,8.90
2019-06-20T13:51:10.528Z,8.70
2019-06-20T13:52:10.372Z,8.50
2019-06-20T13:53:10.458Z,8.70
2019-06-20T13:54:11.086Z,8.70
2019-06-20T13:56:10.437Z,8.40
2019-06-20T13:57:10.691Z,8.10
2019-06-20T13:58:10.532Z,8.50
2019-06-20T13:59:10.536Z,8.00
2019-06-20T14:00:10.602Z,8.90
2019-06-20T14:01:10.544Z,7.60
2019-06-20T14:02:10.575Z,8.50
2019-06-20T14:03:10.675Z,8.40
2019-06-20T14:04:10.572Z,8.60
2019-06-20T14:06:10.647Z,9.00
2019-06-20T14:07:10.675Z,8.80
2019-06-20T14:08:10.688Z,9.50
2019-06-20T14:09:10.905Z,8.60
2019-06-20T14:10:10.696Z,8.80
2019-06-20T14:11:10.687Z,8.90
2019-06-20T14:12:10.700Z,8.70
2019-06-20T14:13:19.035Z,8.60
2019-06-20T14:14:11.013Z,8.40
2019-06-20T14:17:10.891Z,8.40
2019-06-20T14:18:11.640Z,8.30